sensor_id;sensor_type;location;lat;lon;timestamp;temperature;humidity
3818;DHT22;1924;48.078;11.516;2022-09-01T00:00:13;15.60;99.90
3818;DHT22;1924;48.078;11.516;2022-09-01T00:02:45;15.60;99.90
3818;DHT22;1924;48.078;11.516;2022-09-01T00:05:12;15.60;99.90
3818;DHT22;1924;48.078;11.516;2022-09-01T04:00:59;15.20;99.90
3818;DHT22;1924;48.078;11.516;2022-09-01T04:03:29;15.10;99.90
3818;DHT22;1924;48.078;11.516;2022-09-01T04:05:57;15.20;99.90
3818;DHT22;1924;48.078;11.516;2022-09-01T04:08:25;15.20;99.90
3818;DHT22;1924;48.078;11.516;2022-09-01T04:10:56;15.10;99.90
3818;DHT22;1924;48.078;11.516;2022-09-01T04:13:24;15.30;99.90
3818;DHT22;1924;48.078;11.516;2022-09-01T04:15:52;15.30;99.90
3818;DHT22;1924;48.078;11.516;2022-09-01T04:18:22;15.30;99.90
3818;DHT22;1924;48.078;11.516;2022-09-01T04:20:50;15.10;99.90
3818;DHT22;1924;48.078;11.516;2022-09-01T04:23:20;15.00;99.90
3818;DHT22;1924;48.078;11.516;2022-09-01T04:25:51;15.00;99.90
3818;DHT22;1924;48.078;11.516;2022-09-01T04:28:19;14.90;99.90
3818;DHT22;1924;48.078;11.516;2022-09-01T04:30:51;15.00;99.90
3818;DHT22;1924;48.078;11.516;2022-09-01T04:33:22;14.90;99.90
3818;DHT22;1924;48.078;11.516;2022-09-01T04:35:49;14.80;99.90
3818;DHT22;1924;48.078;11.516;2022-09-01T04:38:19;14.70;99.90
3818;DHT22;1924;48.078;11.516;2022-09-01T04:40:46;14.70;99.90
3818;DHT22;1924;48.078;11.516;2022-09-01T04:43:13;14.60;99.90
3818;DHT22;1924;48.078;11.516;2022-09-01T04:45:41;14.60;99.90
3818;DHT22;1924;48.078;11.516;2022-09-01T04:48:08;14.60;99.90
3818;DHT22;1924;48.078;11.516;2022-09-01T04:50:39;14.70;99.90
3818;DHT22;1924;48.078;11.516;2022-09-01T04:53:06;14.60;99.90
3818;DHT22;1924;48.078;11.516;2022-09-01T04:55:38;14.80;99.90
3818;DHT22;1924;48.078;11.516;2022-09-01T04:58:08;14.90;99.90
3818;DHT22;1924;48.078;11.516;2022-09-01T05:00:35;15.00;99.90
3818;DHT22;1924;48.078;11.516;2022-09-01T05:03:03;14.90;99.90
3818;DHT22;1924;48.078;11.516;2022-09-01T05:05:38;14.90;99.90
3818;DHT22;1924;48.078;11.516;2022-09-01T05:08:07;14.90;99.90
3818;DHT22;1924;48.078;11.516;2022-09-01T05:10:39;14.80;99.90
3818;DHT22;1924;48.078;11.516;2022-09-01T05:13:07;14.80;99.90
3818;DHT22;1924;48.078;11.516;2022-09-01T05:15:35;14.80;99.90
3818;DHT22;1924;48.078;11.516;2022-09-01T05:18:03;14.70;99.90
3818;DHT22;1924;48.078;11.516;2022-09-01T05:20:37;14.70;99.90
3818;DHT22;1924;48.078;11.516;2022-09-01T05:23:08;14.60;99.90
3818;DHT22;1924;48.078;11.516;2022-09-01T05:25:38;14.60;99.90
3818;DHT22;1924;48.078;11.516;2022-09-01T05:28:06;14.70;99.90
3818;DHT22;1924;48.078;11.516;2022-09-01T05:30:34;14.70;99.90
3818;DHT22;1924;48.078;11.516;2022-09-01T05:33:03;14.70;99.90
3818;DHT22;1924;48.078;11.516;2022-09-01T05:35:36;14.70;99.90
3818;DHT22;1924;48.078;11.516;2022-09-01T05:38:06;14.70;99.90
3818;DHT22;1924;48.078;11.516;2022-09-01T05:40:39;14.70;99.90
3818;DHT22;1924;48.078;11.516;2022-09-01T05:43:07;14.70;99.90
3818;DHT22;1924;48.078;11.516;2022-09-01T05:45:35;14.70;99.90
3818;DHT22;1924;48.078;11.516;2022-09-01T05:48:03;14.70;99.90
3818;DHT22;1924;48.078;11.516;2022-09-01T05:50:30;14.80;99.90
3818;DHT22;1924;48.078;11.516;2022-09-01T05:52:58;14.80;99.90
3818;DHT22;1924;48.078;11.516;2022-09-01T05:55:25;14.60;99.90
3818;DHT22;1924;48.078;11.516;2022-09-01T05:57:52;14.70;99.90
3818;DHT22;1924;48.078;11.516;2022-09-01T06:00:19;14.60;99.90
3818;DHT22;1924;48.078;11.516;2022-09-01T06:02:47;14.60;99.90
3818;DHT22;1924;48.078;11.516;2022-09-01T06:05:14;14.70;99.90
3818;DHT22;1924;48.078;11.516;2022-09-01T06:07:40;14.80;99.90
3818;DHT22;1924;48.078;11.516;2022-09-01T06:10:10;14.70;99.90
3818;DHT22;1924;48.078;11.516;2022-09-01T06:12:37;14.80;99.90
3818;DHT22;1924;48.078;11.516;2022-09-01T06:15:04;14.90;99.90
3818;DHT22;1924;48.078;11.516;2022-09-01T06:17:40;14.90;99.90
3818;DHT22;1924;48.078;11.516;2022-09-01T06:20:08;15.00;99.90
3818;DHT22;1924;48.078;11.516;2022-09-01T06:22:36;15.00;99.90
3818;DHT22;1924;48.078;11.516;2022-09-01T06:25:03;15.00;99.90
3818;DHT22;1924;48.078;11.516;2022-09-01T06:27:34;14.80;99.90
3818;DHT22;1924;48.078;11.516;2022-09-01T06:30:06;14.80;99.90
3818;DHT22;1924;48.078;11.516;2022-09-01T06:32:39;14.80;99.90
3818;DHT22;1924;48.078;11.516;2022-09-01T06:35:08;14.90;99.90
3818;DHT22;1924;48.078;11.516;2022-09-01T06:37:36;14.90;99.90
3818;DHT22;1924;48.078;11.516;2022-09-01T06:40:04;15.00;99.90
3818;DHT22;1924;48.078;11.516;2022-09-01T06:42:33;15.00;99.90
3818;DHT22;1924;48.078;11.516;2022-09-01T06:45:00;15.10;99.90
3818;DHT22;1924;48.078;11.516;2022-09-01T06:47:27;15.00;99.90
3818;DHT22;1924;48.078;11.516;2022-09-01T06:49:54;15.00;99.90
3818;DHT22;1924;48.078;11.516;2022-09-01T06:52:23;15.00;99.90
3818;DHT22;1924;48.078;11.516;2022-09-01T06:54:50;15.00;99.90
3818;DHT22;1924;48.078;11.516;2022-09-01T06:57:19;15.10;99.90
3818;DHT22;1924;48.078;11.516;2022-09-01T06:59:48;15.20;99.90
3818;DHT22;1924;48.078;11.516;2022-09-01T07:02:15;15.20;99.90
3818;DHT22;1924;48.078;11.516;2022-09-01T07:04:44;15.40;99.90
3818;DHT22;1924;48.078;11.516;2022-09-01T07:07:11;15.30;99.90
3818;DHT22;1924;48.078;11.516;2022-09-01T07:09:38;15.40;99.90
3818;DHT22;1924;48.078;11.516;2022-09-01T07:12:05;15.50;99.90
3818;DHT22;1924;48.078;11.516;2022-09-01T07:14:32;15.50;99.90
3818;DHT22;1924;48.078;11.516;2022-09-01T07:17:00;15.50;99.90
3818;DHT22;1924;48.078;11.516;2022-09-01T07:19:27;15.50;99.90
3818;DHT22;1924;48.078;11.516;2022-09-01T07:21:54;15.40;99.90
3818;DHT22;1924;48.078;11.516;2022-09-01T07:24:20;15.30;99.90
3818;DHT22;1924;48.078;11.516;2022-09-01T07:26:47;15.20;99.90
3818;DHT22;1924;48.078;11.516;2022-09-01T07:29:16;15.10;99.90
3818;DHT22;1924;48.078;11.516;2022-09-01T07:31:46;15.00;99.90
3818;DHT22;1924;48.078;11.516;2022-09-01T07:34:15;15.00;99.90
3818;DHT22;1924;48.078;11.516;2022-09-01T07:36:42;15.10;99.90
3818;DHT22;1924;48.078;11.516;2022-09-01T07:39:10;15.20;99.90
3818;DHT22;1924;48.078;11.516;2022-09-01T07:41:39;15.20;99.90
3818;DHT22;1924;48.078;11.516;2022-09-01T07:44:07;15.20;99.90
3818;DHT22;1924;48.078;11.516;2022-09-01T07:46:36;15.30;99.90
3818;DHT22;1924;48.078;11.516;2022-09-01T07:49:03;15.50;99.90
3818;DHT22;1924;48.078;11.516;2022-09-01T07:51:31;15.40;99.90
3818;DHT22;1924;48.078;11.516;2022-09-01T07:53:59;15.60;99.90
3818;DHT22;1924;48.078;11.516;2022-09-01T07:56:28;15.60;99.90
3818;DHT22;1924;48.078;11.516;2022-09-01T07:58:56;15.70;99.90
3818;DHT22;1924;48.078;11.516;2022-09-01T08:01:24;15.70;99.90
3818;DHT22;1924;48.078;11.516;2022-09-01T08:03:53;15.50;99.90
3818;DHT22;1924;48.078;11.516;2022-09-01T08:06:22;15.50;99.90
3818;DHT22;1924;48.078;11.516;2022-09-01T08:08:53;15.30;99.90
3818;DHT22;1924;48.078;11.516;2022-09-01T08:11:22;15.40;99.90
3818;DHT22;1924;48.078;11.516;2022-09-01T08:13:50;15.50;99.90
3818;DHT22;1924;48.078;11.516;2022-09-01T08:16:17;15.60;99.90
3818;DHT22;1924;48.078;11.516;2022-09-01T08:18:45;15.60;99.90
3818;DHT22;1924;48.078;11.516;2022-09-01T08:21:14;15.70;99.90
3818;DHT22;1924;48.078;11.516;2022-09-01T08:23:41;15.80;99.90
3818;DHT22;1924;48.078;11.516;2022-09-01T08:26:11;15.80;99.90
3818;DHT22;1924;48.078;11.516;2022-09-01T08:28:39;15.90;99.90
3818;DHT22;1924;48.078;11.516;2022-09-01T08:31:07;15.90;99.90
3818;DHT22;1924;48.078;11.516;2022-09-01T08:33:35;15.90;99.90
3818;DHT22;1924;48.078;11.516;2022-09-01T08:36:02;15.90;99.90
3818;DHT22;1924;48.078;11.516;2022-09-01T08:38:29;16.00;99.90
3818;DHT22;1924;48.078;11.516;2022-09-01T08:40:57;16.10;99.90
3818;DHT22;1924;48.078;11.516;2022-09-01T08:43:35;16.20;99.90
3818;DHT22;1924;48.078;11.516;2022-09-01T08:46:10;16.10;99.90
3818;DHT22;1924;48.078;11.516;2022-09-01T08:48:39;16.00;99.90
3818;DHT22;1924;48.078;11.516;2022-09-01T08:51:14;16.20;99.90
3818;DHT22;1924;48.078;11.516;2022-09-01T08:53:46;16.20;99.90
3818;DHT22;1924;48.078;11.516;2022-09-01T08:56:14;16.20;99.90
3818;DHT22;1924;48.078;11.516;2022-09-01T08:58:44;16.00;99.90
3818;DHT22;1924;48.078;11.516;2022-09-01T09:01:17;16.00;99.90
3818;DHT22;1924;48.078;11.516;2022-09-01T09:03:54;16.10;99.90
3818;DHT22;1924;48.078;11.516;2022-09-01T09:06:32;16.10;99.90
3818;DHT22;1924;48.078;11.516;2022-09-01T09:09:02;16.20;99.90
3818;DHT22;1924;48.078;11.516;2022-09-01T09:11:51;16.20;99.90
3818;DHT22;1924;48.078;11.516;2022-09-01T09:14:35;16.20;99.90
3818;DHT22;1924;48.078;11.516;2022-09-01T09:17:04;16.30;99.90
3818;DHT22;1924;48.078;11.516;2022-09-01T09:19:33;16.40;99.90
3818;DHT22;1924;48.078;11.516;2022-09-01T09:22:04;16.30;99.90
3818;DHT22;1924;48.078;11.516;2022-09-01T09:24:33;16.40;99.90
3818;DHT22;1924;48.078;11.516;2022-09-01T09:27:17;16.40;99.90
3818;DHT22;1924;48.078;11.516;2022-09-01T09:29:47;16.50;99.90
3818;DHT22;1924;48.078;11.516;2022-09-01T09:32:15;16.50;99.90
3818;DHT22;1924;48.078;11.516;2022-09-01T09:34:42;16.50;99.90
3818;DHT22;1924;48.078;11.516;2022-09-01T09:37:19;16.60;99.90
3818;DHT22;1924;48.078;11.516;2022-09-01T09:40:02;16.80;99.90
3818;DHT22;1924;48.078;11.516;2022-09-01T09:42:31;16.90;99.90
3818;DHT22;1924;48.078;11.516;2022-09-01T09:44:59;17.00;99.90
3818;DHT22;1924;48.078;11.516;2022-09-01T09:47:34;17.00;99.90
3818;DHT22;1924;48.078;11.516;2022-09-01T09:50:16;17.10;99.90
3818;DHT22;1924;48.078;11.516;2022-09-01T09:52:44;16.90;99.90
3818;DHT22;1924;48.078;11.516;2022-09-01T09:55:21;17.00;99.90
3818;DHT22;1924;48.078;11.516;2022-09-01T09:57:50;17.10;99.90
3818;DHT22;1924;48.078;11.516;2022-09-01T10:00:21;17.10;99.90
3818;DHT22;1924;48.078;11.516;2022-09-01T10:02:52;17.10;99.90
3818;DHT22;1924;48.078;11.516;2022-09-01T10:05:33;17.30;99.90
3818;DHT22;1924;48.078;11.516;2022-09-01T10:08:01;17.30;99.90
3818;DHT22;1924;48.078;11.516;2022-09-01T10:10:30;17.20;99.90
3818;DHT22;1924;48.078;11.516;2022-09-01T10:13:02;17.20;99.90
3818;DHT22;1924;48.078;11.516;2022-09-01T10:15:32;17.10;99.90
3818;DHT22;1924;48.078;11.516;2022-09-01T10:18:03;17.10;99.90
3818;DHT22;1924;48.078;11.516;2022-09-01T10:20:33;17.30;99.90
3818;DHT22;1924;48.078;11.516;2022-09-01T10:23:03;17.40;99.90
3818;DHT22;1924;48.078;11.516;2022-09-01T10:25:33;17.30;99.90
3818;DHT22;1924;48.078;11.516;2022-09-01T10:28:04;17.30;99.90
3818;DHT22;1924;48.078;11.516;2022-09-01T10:30:36;17.40;99.90
3818;DHT22;1924;48.078;11.516;2022-09-01T10:33:07;17.60;99.90
3818;DHT22;1924;48.078;11.516;2022-09-01T10:35:36;17.70;99.90
3818;DHT22;1924;48.078;11.516;2022-09-01T10:38:08;18.00;99.90
3818;DHT22;1924;48.078;11.516;2022-09-01T10:40:38;18.10;99.90
3818;DHT22;1924;48.078;11.516;2022-09-01T10:43:28;17.80;99.90
3818;DHT22;1924;48.078;11.516;2022-09-01T10:46:08;18.00;99.90
3818;DHT22;1924;48.078;11.516;2022-09-01T10:48:35;18.50;99.90
3818;DHT22;1924;48.078;11.516;2022-09-01T10:54:06;19.00;99.90
3818;DHT22;1924;48.078;11.516;2022-09-01T10:56:38;18.90;99.90
3818;DHT22;1924;48.078;11.516;2022-09-01T10:59:08;18.80;99.90
3818;DHT22;1924;48.078;11.516;2022-09-01T11:02:08;18.70;99.90
3818;DHT22;1924;48.078;11.516;2022-09-01T11:05:10;18.30;99.90
3818;DHT22;1924;48.078;11.516;2022-09-01T11:07:38;18.60;99.90
3818;DHT22;1924;48.078;11.516;2022-09-01T11:10:23;18.70;99.90
3818;DHT22;1924;48.078;11.516;2022-09-01T11:13:18;18.80;99.90
3818;DHT22;1924;48.078;11.516;2022-09-01T11:15:47;18.70;99.90
3818;DHT22;1924;48.078;11.516;2022-09-01T11:18:16;18.40;99.90
3818;DHT22;1924;48.078;11.516;2022-09-01T11:20:49;18.40;99.90
3818;DHT22;1924;48.078;11.516;2022-09-01T11:23:22;18.70;99.90
3818;DHT22;1924;48.078;11.516;2022-09-01T11:25:51;18.60;99.90
3818;DHT22;1924;48.078;11.516;2022-09-01T11:28:38;18.40;99.90
3818;DHT22;1924;48.078;11.516;2022-09-01T11:31:22;18.10;99.90
3818;DHT22;1924;48.078;11.516;2022-09-01T11:33:58;18.40;99.90
3818;DHT22;1924;48.078;11.516;2022-09-01T11:36:29;18.90;99.90
3818;DHT22;1924;48.078;11.516;2022-09-01T11:39:04;19.00;99.90
3818;DHT22;1924;48.078;11.516;2022-09-01T11:44:12;20.00;99.90
3818;DHT22;1924;48.078;11.516;2022-09-01T11:46:40;20.30;99.90
3818;DHT22;1924;48.078;11.516;2022-09-01T11:49:27;20.60;99.90
3818;DHT22;1924;48.078;11.516;2022-09-01T11:51:55;20.60;99.90
3818;DHT22;1924;48.078;11.516;2022-09-01T11:54:23;20.20;99.90
3818;DHT22;1924;48.078;11.516;2022-09-01T11:56:50;20.50;99.90
3818;DHT22;1924;48.078;11.516;2022-09-01T11:59:30;20.60;99.90
3818;DHT22;1924;48.078;11.516;2022-09-01T12:01:58;20.60;99.90
3818;DHT22;1924;48.078;11.516;2022-09-01T12:04:31;20.40;99.90
3818;DHT22;1924;48.078;11.516;2022-09-01T12:07:03;19.90;99.90
3818;DHT22;1924;48.078;11.516;2022-09-01T12:09:34;19.80;99.90
3818;DHT22;1924;48.078;11.516;2022-09-01T12:12:02;19.50;99.90
3818;DHT22;1924;48.078;11.516;2022-09-01T12:14:30;19.70;99.90
3818;DHT22;1924;48.078;11.516;2022-09-01T12:17:01;20.20;99.90
3818;DHT22;1924;48.078;11.516;2022-09-01T12:19:34;20.30;99.90
3818;DHT22;1924;48.078;11.516;2022-09-01T12:22:05;20.10;99.90
3818;DHT22;1924;48.078;11.516;2022-09-01T12:24:44;19.80;99.90
3818;DHT22;1924;48.078;11.516;2022-09-01T12:27:12;19.90;99.90
3818;DHT22;1924;48.078;11.516;2022-09-01T12:29:42;20.10;99.90
3818;DHT22;1924;48.078;11.516;2022-09-01T12:32:09;20.40;99.90
3818;DHT22;1924;48.078;11.516;2022-09-01T12:34:40;20.90;99.90
3818;DHT22;1924;48.078;11.516;2022-09-01T12:37:10;21.10;99.90
3818;DHT22;1924;48.078;11.516;2022-09-01T12:39:39;20.90;99.90
3818;DHT22;1924;48.078;11.516;2022-09-01T12:42:11;20.60;99.90
3818;DHT22;1924;48.078;11.516;2022-09-01T12:44:50;19.90;99.90
3818;DHT22;1924;48.078;11.516;2022-09-01T12:47:44;19.40;99.90
3818;DHT22;1924;48.078;11.516;2022-09-01T12:50:42;19.10;99.90
3818;DHT22;1924;48.078;11.516;2022-09-01T12:53:25;19.20;99.90
3818;DHT22;1924;48.078;11.516;2022-09-01T12:55:59;19.80;99.90
3818;DHT22;1924;48.078;11.516;2022-09-01T12:58:28;20.10;99.90
3818;DHT22;1924;48.078;11.516;2022-09-01T13:00:58;20.60;99.90
3818;DHT22;1924;48.078;11.516;2022-09-01T13:03:26;20.80;99.90
3818;DHT22;1924;48.078;11.516;2022-09-01T13:05:59;20.60;99.90
3818;DHT22;1924;48.078;11.516;2022-09-01T13:08:29;20.60;99.90
3818;DHT22;1924;48.078;11.516;2022-09-01T13:11:01;20.40;99.40
3818;DHT22;1924;48.078;11.516;2022-09-01T13:13:29;20.40;99.80
3818;DHT22;1924;48.078;11.516;2022-09-01T13:15:57;20.50;99.90
3818;DHT22;1924;48.078;11.516;2022-09-01T13:18:25;20.40;99.40
3818;DHT22;1924;48.078;11.516;2022-09-01T13:20:53;19.90;98.10
3818;DHT22;1924;48.078;11.516;2022-09-01T13:23:22;19.90;99.90
3818;DHT22;1924;48.078;11.516;2022-09-01T13:25:49;20.10;98.80
3818;DHT22;1924;48.078;11.516;2022-09-01T13:28:17;20.30;98.80
3818;DHT22;1924;48.078;11.516;2022-09-01T13:30:49;20.70;99.90
3818;DHT22;1924;48.078;11.516;2022-09-01T13:33:18;21.00;99.80
3818;DHT22;1924;48.078;11.516;2022-09-01T13:35:45;21.30;99.20
3818;DHT22;1924;48.078;11.516;2022-09-01T13:38:12;21.30;99.80
3818;DHT22;1924;48.078;11.516;2022-09-01T13:40:43;21.20;97.60
3818;DHT22;1924;48.078;11.516;2022-09-01T13:43:11;20.70;95.30
3818;DHT22;1924;48.078;11.516;2022-09-01T13:45:38;20.20;97.20
3818;DHT22;1924;48.078;11.516;2022-09-01T13:48:06;19.80;96.30
3818;DHT22;1924;48.078;11.516;2022-09-01T13:50:33;19.40;96.90
3818;DHT22;1924;48.078;11.516;2022-09-01T13:53:00;19.20;99.20
3818;DHT22;1924;48.078;11.516;2022-09-01T13:55:30;19.00;99.90
3818;DHT22;1924;48.078;11.516;2022-09-01T13:58:07;19.00;99.90
3818;DHT22;1924;48.078;11.516;2022-09-01T14:00:37;19.00;99.90
3818;DHT22;1924;48.078;11.516;2022-09-01T14:03:06;19.00;99.90
3818;DHT22;1924;48.078;11.516;2022-09-01T14:05:35;19.00;99.00
3818;DHT22;1924;48.078;11.516;2022-09-01T14:08:04;19.20;99.90
3818;DHT22;1924;48.078;11.516;2022-09-01T14:10:31;19.40;95.40
3818;DHT22;1924;48.078;11.516;2022-09-01T14:12:59;19.60;95.80
3818;DHT22;1924;48.078;11.516;2022-09-01T14:15:27;19.80;98.70
3818;DHT22;1924;48.078;11.516;2022-09-01T14:17:55;20.00;99.60
3818;DHT22;1924;48.078;11.516;2022-09-01T14:20:26;20.00;99.00
3818;DHT22;1924;48.078;11.516;2022-09-01T14:22:54;20.10;99.90
3818;DHT22;1924;48.078;11.516;2022-09-01T14:25:21;20.20;99.90
3818;DHT22;1924;48.078;11.516;2022-09-01T14:27:48;20.20;98.20
3818;DHT22;1924;48.078;11.516;2022-09-01T14:30:18;20.20;99.40
3818;DHT22;1924;48.078;11.516;2022-09-01T14:32:47;19.80;97.30
3818;DHT22;1924;48.078;11.516;2022-09-01T14:35:16;19.60;96.90
3818;DHT22;1924;48.078;11.516;2022-09-01T14:37:43;19.40;97.00
3818;DHT22;1924;48.078;11.516;2022-09-01T14:40:12;19.50;98.40
3818;DHT22;1924;48.078;11.516;2022-09-01T14:42:40;19.60;99.50
3818;DHT22;1924;48.078;11.516;2022-09-01T14:45:09;19.60;98.80
3818;DHT22;1924;48.078;11.516;2022-09-01T14:47:36;19.60;98.90
3818;DHT22;1924;48.078;11.516;2022-09-01T14:50:06;19.50;96.60
3818;DHT22;1924;48.078;11.516;2022-09-01T14:52:33;19.50;96.90
3818;DHT22;1924;48.078;11.516;2022-09-01T14:55:02;19.60;99.70
3818;DHT22;1924;48.078;11.516;2022-09-01T14:57:29;19.60;99.00
3818;DHT22;1924;48.078;11.516;2022-09-01T14:59:56;19.60;97.90
3818;DHT22;1924;48.078;11.516;2022-09-01T15:02:23;19.60;99.40
3818;DHT22;1924;48.078;11.516;2022-09-01T15:04:50;19.50;98.70
3818;DHT22;1924;48.078;11.516;2022-09-01T15:07:18;19.40;98.30
3818;DHT22;1924;48.078;11.516;2022-09-01T15:09:45;19.40;98.80
3818;DHT22;1924;48.078;11.516;2022-09-01T15:12:11;19.40;96.20
3818;DHT22;1924;48.078;11.516;2022-09-01T15:14:38;19.50;97.40
3818;DHT22;1924;48.078;11.516;2022-09-01T15:17:05;19.40;96.20
3818;DHT22;1924;48.078;11.516;2022-09-01T15:19:32;19.50;98.10
3818;DHT22;1924;48.078;11.516;2022-09-01T15:21:59;19.40;98.90
3818;DHT22;1924;48.078;11.516;2022-09-01T15:24:27;19.40;96.60
3818;DHT22;1924;48.078;11.516;2022-09-01T15:26:53;19.30;98.40
3818;DHT22;1924;48.078;11.516;2022-09-01T15:29:20;19.20;96.10
3818;DHT22;1924;48.078;11.516;2022-09-01T15:31:47;19.20;95.80
3818;DHT22;1924;48.078;11.516;2022-09-01T15:34:14;19.20;92.30
3818;DHT22;1924;48.078;11.516;2022-09-01T15:36:42;19.20;91.50
3818;DHT22;1924;48.078;11.516;2022-09-01T15:39:10;19.20;92.10
3818;DHT22;1924;48.078;11.516;2022-09-01T15:41:38;19.20;92.20
3818;DHT22;1924;48.078;11.516;2022-09-01T15:44:06;19.20;92.80
3818;DHT22;1924;48.078;11.516;2022-09-01T15:46:34;19.10;93.80
3818;DHT22;1924;48.078;11.516;2022-09-01T15:49:05;19.00;93.50
3818;DHT22;1924;48.078;11.516;2022-09-01T15:51:33;19.00;92.80
3818;DHT22;1924;48.078;11.516;2022-09-01T15:54:04;19.00;95.20
3818;DHT22;1924;48.078;11.516;2022-09-01T15:56:32;19.00;95.40
3818;DHT22;1924;48.078;11.516;2022-09-01T15:59:00;19.00;96.70
3818;DHT22;1924;48.078;11.516;2022-09-01T16:01:30;18.90;96.50
3818;DHT22;1924;48.078;11.516;2022-09-01T16:03:57;19.00;95.60
3818;DHT22;1924;48.078;11.516;2022-09-01T16:06:24;19.00;96.70
3818;DHT22;1924;48.078;11.516;2022-09-01T16:08:51;19.00;93.60
3818;DHT22;1924;48.078;11.516;2022-09-01T16:11:19;19.00;92.90
3818;DHT22;1924;48.078;11.516;2022-09-01T16:13:48;18.90;95.80
3818;DHT22;1924;48.078;11.516;2022-09-01T16:16:30;18.90;95.20
3818;DHT22;1924;48.078;11.516;2022-09-01T16:19:04;18.90;95.70
3818;DHT22;1924;48.078;11.516;2022-09-01T16:21:39;18.70;94.80
3818;DHT22;1924;48.078;11.516;2022-09-01T16:24:11;18.60;94.20
3818;DHT22;1924;48.078;11.516;2022-09-01T16:26:40;18.60;97.50
3818;DHT22;1924;48.078;11.516;2022-09-01T16:29:13;18.50;97.00
3818;DHT22;1924;48.078;11.516;2022-09-01T16:31:42;18.50;97.00
3818;DHT22;1924;48.078;11.516;2022-09-01T16:34:13;18.50;95.60
3818;DHT22;1924;48.078;11.516;2022-09-01T16:36:53;18.40;96.80
3818;DHT22;1924;48.078;11.516;2022-09-01T16:39:29;18.30;96.60
3818;DHT22;1924;48.078;11.516;2022-09-01T16:42:13;18.30;96.20
3818;DHT22;1924;48.078;11.516;2022-09-01T16:44:52;18.20;94.70
3818;DHT22;1924;48.078;11.516;2022-09-01T16:50:25;18.20;96.50
3818;DHT22;1924;48.078;11.516;2022-09-01T16:53:07;18.10;96.60
3818;DHT22;1924;48.078;11.516;2022-09-01T16:55:37;18.10;97.70
3818;DHT22;1924;48.078;11.516;2022-09-01T16:58:16;18.10;97.30
3818;DHT22;1924;48.078;11.516;2022-09-01T17:00:53;18.10;98.50
3818;DHT22;1924;48.078;11.516;2022-09-01T17:03:27;18.10;97.80
3818;DHT22;1924;48.078;11.516;2022-09-01T17:06:04;18.00;97.30
3818;DHT22;1924;48.078;11.516;2022-09-01T17:08:43;18.00;97.10
3818;DHT22;1924;48.078;11.516;2022-09-01T17:11:21;17.90;96.50
3818;DHT22;1924;48.078;11.516;2022-09-01T17:13:50;17.90;97.00
3818;DHT22;1924;48.078;11.516;2022-09-01T17:16:20;17.80;98.30
3818;DHT22;1924;48.078;11.516;2022-09-01T17:18:52;17.70;96.70
3818;DHT22;1924;48.078;11.516;2022-09-01T17:21:21;17.70;97.20
3818;DHT22;1924;48.078;11.516;2022-09-01T17:23:54;17.70;97.10
3818;DHT22;1924;48.078;11.516;2022-09-01T17:26:24;17.70;97.60
3818;DHT22;1924;48.078;11.516;2022-09-01T17:28:55;17.70;97.20
3818;DHT22;1924;48.078;11.516;2022-09-01T17:31:36;17.60;98.50
3818;DHT22;1924;48.078;11.516;2022-09-01T17:34:16;17.50;97.20
3818;DHT22;1924;48.078;11.516;2022-09-01T17:36:53;17.60;98.70
3818;DHT22;1924;48.078;11.516;2022-09-01T17:39:33;17.50;98.20
3818;DHT22;1924;48.078;11.516;2022-09-01T17:42:11;17.50;98.20
3818;DHT22;1924;48.078;11.516;2022-09-01T17:44:45;17.50;98.80
3818;DHT22;1924;48.078;11.516;2022-09-01T17:47:25;17.40;97.80
3818;DHT22;1924;48.078;11.516;2022-09-01T17:50:03;17.40;97.40
3818;DHT22;1924;48.078;11.516;2022-09-01T17:52:43;17.30;98.80
3818;DHT22;1924;48.078;11.516;2022-09-01T17:55:16;17.30;99.10
3818;DHT22;1924;48.078;11.516;2022-09-01T17:57:50;17.10;99.60
3818;DHT22;1924;48.078;11.516;2022-09-01T18:00:20;17.10;98.80
3818;DHT22;1924;48.078;11.516;2022-09-01T18:03:21;17.10;99.00
3818;DHT22;1924;48.078;11.516;2022-09-01T18:05:59;17.10;98.90
3818;DHT22;1924;48.078;11.516;2022-09-01T18:08:33;17.10;98.80
3818;DHT22;1924;48.078;11.516;2022-09-01T18:11:06;17.10;98.50
3818;DHT22;1924;48.078;11.516;2022-09-01T18:13:39;17.00;98.90
3818;DHT22;1924;48.078;11.516;2022-09-01T18:16:12;17.00;99.00
3818;DHT22;1924;48.078;11.516;2022-09-01T18:18:41;16.90;99.30
3818;DHT22;1924;48.078;11.516;2022-09-01T18:21:14;16.80;99.10
3818;DHT22;1924;48.078;11.516;2022-09-01T18:23:43;16.80;99.20
3818;DHT22;1924;48.078;11.516;2022-09-01T18:26:22;16.80;99.60
3818;DHT22;1924;48.078;11.516;2022-09-01T18:28:52;16.80;99.40
3818;DHT22;1924;48.078;11.516;2022-09-01T18:31:32;16.70;99.90
3818;DHT22;1924;48.078;11.516;2022-09-01T18:34:07;16.60;99.70
3818;DHT22;1924;48.078;11.516;2022-09-01T18:36:46;16.60;99.80
3818;DHT22;1924;48.078;11.516;2022-09-01T18:39:19;16.50;99.90
3818;DHT22;1924;48.078;11.516;2022-09-01T18:41:57;16.40;98.60
3818;DHT22;1924;48.078;11.516;2022-09-01T18:44:34;16.40;99.90
3818;DHT22;1924;48.078;11.516;2022-09-01T18:47:07;16.40;99.90
3818;DHT22;1924;48.078;11.516;2022-09-01T18:49:44;16.30;99.30
3818;DHT22;1924;48.078;11.516;2022-09-01T18:52:25;16.30;99.70
3818;DHT22;1924;48.078;11.516;2022-09-01T18:55:05;16.20;99.50
3818;DHT22;1924;48.078;11.516;2022-09-01T18:57:36;16.10;99.90
3818;DHT22;1924;48.078;11.516;2022-09-01T19:00:10;16.10;99.90
3818;DHT22;1924;48.078;11.516;2022-09-01T19:03:02;16.10;99.90
3818;DHT22;1924;48.078;11.516;2022-09-01T19:05:45;16.10;99.90
3818;DHT22;1924;48.078;11.516;2022-09-01T19:08:23;16.10;99.90
3818;DHT22;1924;48.078;11.516;2022-09-01T19:10:58;16.10;99.90
3818;DHT22;1924;48.078;11.516;2022-09-01T19:13:39;16.00;99.90
3818;DHT22;1924;48.078;11.516;2022-09-01T19:16:14;16.10;99.90
3818;DHT22;1924;48.078;11.516;2022-09-01T19:18:46;15.90;99.90
3818;DHT22;1924;48.078;11.516;2022-09-01T19:21:20;15.90;99.90
3818;DHT22;1924;48.078;11.516;2022-09-01T19:23:52;15.90;99.90
3818;DHT22;1924;48.078;11.516;2022-09-01T19:26:23;15.90;99.90
3818;DHT22;1924;48.078;11.516;2022-09-01T19:28:52;15.80;99.90
3818;DHT22;1924;48.078;11.516;2022-09-01T19:31:22;15.80;99.90
3818;DHT22;1924;48.078;11.516;2022-09-01T19:33:53;15.80;99.90
3818;DHT22;1924;48.078;11.516;2022-09-01T19:36:24;15.80;99.90
3818;DHT22;1924;48.078;11.516;2022-09-01T19:38:53;15.70;99.90
3818;DHT22;1924;48.078;11.516;2022-09-01T19:41:24;15.80;99.90
3818;DHT22;1924;48.078;11.516;2022-09-01T19:43:59;15.70;99.90
3818;DHT22;1924;48.078;11.516;2022-09-01T19:46:35;15.70;99.90
3818;DHT22;1924;48.078;11.516;2022-09-01T19:49:12;15.70;99.90
3818;DHT22;1924;48.078;11.516;2022-09-01T19:51:47;15.60;99.90
3818;DHT22;1924;48.078;11.516;2022-09-01T19:54:22;15.60;99.90
3818;DHT22;1924;48.078;11.516;2022-09-01T19:56:56;15.70;99.90
3818;DHT22;1924;48.078;11.516;2022-09-01T19:59:30;15.60;99.90
3818;DHT22;1924;48.078;11.516;2022-09-01T20:02:09;15.60;99.90
3818;DHT22;1924;48.078;11.516;2022-09-01T20:04:41;15.60;99.90
3818;DHT22;1924;48.078;11.516;2022-09-01T20:07:14;15.60;99.90
3818;DHT22;1924;48.078;11.516;2022-09-01T20:09:48;15.60;99.90
3818;DHT22;1924;48.078;11.516;2022-09-01T20:12:23;15.50;99.90